Zenith Leader — 2ACU6 — position and weather

sailwx.info

Track history (hours):
 
Tides and Currents Weather Stations Pressure Air Temp Water Temp Dewpoint Dewpoint Depression Visibility Wind Speed Wind Dir Waves Ship Positions

Zenith Leader

Last reported at 2015-Mar-18 07:30 UTC. Time now 2015-Apr-02 03:12 UTC.
Position N 01°54' E 102°22'.
Warning: this ship's position is 14 days out of date.

Length 199 m; draft 9.4 m.

Type: Cargo ship. MMSI: 235058697.

Date/timePositionNaut miles runAvg speedWind from/ knotsBaromVisibWave heightAir tempDewpointWater temp
2015-Mar-18 07:30N 01°54' E 102°22'1616.9
2015-Mar-18 06:34N 01°48' E 102°36'75 5.0
2015-Mar-17 15:22N 01°17' E 103°45'0 0.0
2015-Mar-17 14:31N 01°17' E 103°45'0 0.0
2015-Mar-17 13:28N 01°17' E 103°45'0 0.0
2015-Mar-17 10:28N 01°17' E 103°45'0 0.0
2015-Mar-17 07:28N 01°17' E 103°45'0 0.0
2015-Mar-17 02:22N 01°17' E 103°45'0 0.0
2015-Mar-17 01:31N 01°17' E 103°45'0 0.0
2015-Mar-17 00:28N 01°17' E 103°45'0 0.0
2015-Mar-16 23:16N 01°17' E 103°45'1 0.8
2015-Mar-16 22:34N 01°17' E 103°45'9 8.6
2015-Mar-16 21:33N 01°13' E 103°53'4 4.1
2015-Mar-16 20:33N 01°15' E 103°56'4 4.4
2015-Mar-16 19:33N 01°16' E 104°01'6 5.7
2015-Mar-16 18:32N 01°17' E 104°06'7 6.5
2015-Mar-16 17:29N 01°18' E 104°13'  
2015-Mar-08 16:32N 34°35' E 134°53'1010.7
2015-Mar-08 15:33N 34°35' E 135°05'9 9.0
2015-Mar-08 14:33N 34°27' E 135°03'1413.8
2015-Mar-08 13:34N 34°13' E 134°59'9 8.7
2015-Mar-08 12:33N 34°05' E 134°59'1110.5
2015-Mar-08 11:32N 33°54' E 134°59'  
Track history (hours):
 
Tides and Currents Weather Stations Pressure Air Temp Water Temp Dewpoint Dewpoint Depression Visibility Wind Speed Wind Dir Waves Ship Positions

Zenith Leader

Last reported at 2015-Mar-18 07:30 UTC. Time now 2015-Apr-02 03:12 UTC.
Position N 01°54' E 102°22'.
Warning: this ship's position is 14 days out of date.

Length 199 m; draft 9.4 m.

Type: Cargo ship. MMSI: 235058697.

Date/timePositionNaut miles runAvg speedWind from/ knotsBaromVisibWave heightAir tempDewpointWater temp
2015-Mar-18 07:30N 01°54' E 102°22'1616.9
2015-Mar-18 06:34N 01°48' E 102°36'75 5.0
2015-Mar-17 15:22N 01°17' E 103°45'0 0.0
2015-Mar-17 14:31N 01°17' E 103°45'0 0.0
2015-Mar-17 13:28N 01°17' E 103°45'0 0.0
2015-Mar-17 10:28N 01°17' E 103°45'0 0.0
2015-Mar-17 07:28N 01°17' E 103°45'0 0.0
2015-Mar-17 02:22N 01°17' E 103°45'0 0.0
2015-Mar-17 01:31N 01°17' E 103°45'0 0.0
2015-Mar-17 00:28N 01°17' E 103°45'0 0.0
2015-Mar-16 23:16N 01°17' E 103°45'1 0.8
2015-Mar-16 22:34N 01°17' E 103°45'9 8.6
2015-Mar-16 21:33N 01°13' E 103°53'4 4.1
2015-Mar-16 20:33N 01°15' E 103°56'4 4.4
2015-Mar-16 19:33N 01°16' E 104°01'6 5.7
2015-Mar-16 18:32N 01°17' E 104°06'7 6.5
2015-Mar-16 17:29N 01°18' E 104°13'  
2015-Mar-08 16:32N 34°35' E 134°53'1010.7
2015-Mar-08 15:33N 34°35' E 135°05'9 9.0
2015-Mar-08 14:33N 34°27' E 135°03'1413.8
2015-Mar-08 13:34N 34°13' E 134°59'9 8.7
2015-Mar-08 12:33N 34°05' E 134°59'1110.5
2015-Mar-08 11:32N 33°54' E 134°59'  

Dump ship's entire track history